Ballardsville, Kentucky
Current Conditions -  °F | °C
As of 9:03 AM on Wednesday 26 Nov 2014 (Local Time) from KLOU Reporting Station
Haze Haze  
Wind Chill: 30°   Ceiling: Unl
Heat Index: 30°   Visibility: 5mi
Dew Point: 26°   Wind: 0mph
Humidity: 85%   Direction: NA
Pressure: 30.15"   Gusts: NA
Location:  38.342°N, 85.4306°W
Report Text: KLOU 261403Z 00000KT 5SM BR SCT028 M01/M03 A3015 RMK AO2 T10111033
Loading
Personal Weather Stations






























Interactive Weather Map New forecast layout! Learn more

10-Day Weather Forecast

Advertisements
Track Severe Weather on mobile